sensor_id;sensor_type;location;lat;lon;timestamp;pressure;altitude;pressure_sealevel;temperature;humidity
74966;BME280;63522;47.928;21.042;2024-01-11T00:00:26;101774.16;;;15.98;37.73
74966;BME280;63522;47.928;21.042;2024-01-11T00:02:51;101773.71;;;15.99;37.71
74966;BME280;63522;47.928;21.042;2024-01-11T00:05:17;101767.08;;;15.99;37.60
74966;BME280;63522;47.928;21.042;2024-01-11T00:07:42;101768.33;;;15.99;37.68
74966;BME280;63522;47.928;21.042;2024-01-11T00:10:07;101774.79;;;15.99;37.47
74966;BME280;63522;47.928;21.042;2024-01-11T00:12:33;101779.25;;;16.00;37.62
74966;BME280;63522;47.928;21.042;2024-01-11T00:14:59;101782.23;;;15.98;37.63
74966;BME280;63522;47.928;21.042;2024-01-11T00:17:24;101784.89;;;15.99;37.59
74966;BME280;63522;47.928;21.042;2024-01-11T00:19:50;101776.83;;;15.98;37.64
74966;BME280;63522;47.928;21.042;2024-01-11T00:22:16;101779.30;;;15.99;37.47
74966;BME280;63522;47.928;21.042;2024-01-11T00:24:41;101782.48;;;16.00;37.52
74966;BME280;63522;47.928;21.042;2024-01-11T00:27:07;101771.10;;;15.98;37.63
74966;BME280;63522;47.928;21.042;2024-01-11T00:29:32;101766.36;;;15.99;37.55
74966;BME280;63522;47.928;21.042;2024-01-11T00:31:58;101764.08;;;15.98;37.53
74966;BME280;63522;47.928;21.042;2024-01-11T00:34:23;101767.67;;;15.98;37.63
74966;BME280;63522;47.928;21.042;2024-01-11T00:36:48;101764.81;;;15.98;37.56
74966;BME280;63522;47.928;21.042;2024-01-11T00:39:14;101761.38;;;15.99;37.51
74966;BME280;63522;47.928;21.042;2024-01-11T00:41:40;101754.55;;;15.98;37.53
74966;BME280;63522;47.928;21.042;2024-01-11T00:44:05;101753.33;;;15.98;37.52
74966;BME280;63522;47.928;21.042;2024-01-11T00:46:30;101751.92;;;15.98;37.50
74966;BME280;63522;47.928;21.042;2024-01-11T00:48:56;101756.02;;;15.98;37.67
74966;BME280;63522;47.928;21.042;2024-01-11T00:51:21;101750.71;;;15.97;37.65
74966;BME280;63522;47.928;21.042;2024-01-11T00:53:46;101754.96;;;15.98;37.58
74966;BME280;63522;47.928;21.042;2024-01-11T00:56:18;101756.12;;;15.97;37.55
74966;BME280;63522;47.928;21.042;2024-01-11T00:58:45;101751.96;;;15.97;37.46
74966;BME280;63522;47.928;21.042;2024-01-11T01:01:11;101752.48;;;15.97;37.63
74966;BME280;63522;47.928;21.042;2024-01-11T01:03:37;101752.35;;;15.97;37.69
74966;BME280;63522;47.928;21.042;2024-01-11T01:06:03;101747.56;;;15.96;37.63
74966;BME280;63522;47.928;21.042;2024-01-11T01:08:28;101749.14;;;15.96;37.63
74966;BME280;63522;47.928;21.042;2024-01-11T01:10:54;101748.96;;;15.96;37.69
74966;BME280;63522;47.928;21.042;2024-01-11T01:13:19;101744.33;;;15.96;37.54
74966;BME280;63522;47.928;21.042;2024-01-11T01:15:45;101743.83;;;15.95;37.60
74966;BME280;63522;47.928;21.042;2024-01-11T01:18:10;101741.83;;;15.95;37.52
74966;BME280;63522;47.928;21.042;2024-01-11T01:20:35;101736.30;;;15.95;37.73
74966;BME280;63522;47.928;21.042;2024-01-11T01:23:02;101733.29;;;15.94;37.43
74966;BME280;63522;47.928;21.042;2024-01-11T01:25:27;101727.84;;;15.95;37.43
74966;BME280;63522;47.928;21.042;2024-01-11T01:27:52;101722.20;;;15.94;37.42
74966;BME280;63522;47.928;21.042;2024-01-11T01:30:18;101723.79;;;15.94;37.58
74966;BME280;63522;47.928;21.042;2024-01-11T01:32:43;101722.92;;;15.94;37.50
74966;BME280;63522;47.928;21.042;2024-01-11T01:35:08;101716.62;;;15.94;37.49
74966;BME280;63522;47.928;21.042;2024-01-11T01:37:34;101712.00;;;15.93;37.56
74966;BME280;63522;47.928;21.042;2024-01-11T01:39:59;101711.09;;;15.93;37.58
74966;BME280;63522;47.928;21.042;2024-01-11T01:42:24;101712.05;;;15.93;37.55
74966;BME280;63522;47.928;21.042;2024-01-11T01:44:50;101705.95;;;15.92;37.54
74966;BME280;63522;47.928;21.042;2024-01-11T01:47:15;101704.67;;;15.93;37.59
74966;BME280;63522;47.928;21.042;2024-01-11T01:49:42;101702.04;;;15.92;37.45
74966;BME280;63522;47.928;21.042;2024-01-11T01:52:09;101707.92;;;15.92;37.54
74966;BME280;63522;47.928;21.042;2024-01-11T01:54:36;101704.76;;;15.92;37.64
74966;BME280;63522;47.928;21.042;2024-01-11T01:57:02;101698.89;;;15.91;37.55
74966;BME280;63522;47.928;21.042;2024-01-11T01:59:29;101696.85;;;15.92;37.50
74966;BME280;63522;47.928;21.042;2024-01-11T02:01:56;101695.56;;;15.92;37.56
74966;BME280;63522;47.928;21.042;2024-01-11T02:04:21;101694.01;;;15.91;37.41
74966;BME280;63522;47.928;21.042;2024-01-11T02:06:48;101690.11;;;15.90;37.51
74966;BME280;63522;47.928;21.042;2024-01-11T02:22:46;101655.95;;;15.88;37.51
74966;BME280;63522;47.928;21.042;2024-01-11T02:32:03;101635.49;;;15.86;37.54
74966;BME280;63522;47.928;21.042;2024-01-11T02:34:30;101637.11;;;15.85;37.54
74966;BME280;63522;47.928;21.042;2024-01-11T02:47:29;101617.01;;;15.83;37.53
74966;BME280;63522;47.928;21.042;2024-01-11T02:49:54;101612.40;;;15.82;37.51
74966;BME280;63522;47.928;21.042;2024-01-11T02:52:20;101601.06;;;15.82;37.55
74966;BME280;63522;47.928;21.042;2024-01-11T03:08:23;101585.33;;;15.79;37.52
74966;BME280;63522;47.928;21.042;2024-01-11T03:10:48;101584.63;;;15.79;37.43
74966;BME280;63522;47.928;21.042;2024-01-11T03:13:13;101582.06;;;15.79;37.50
74966;BME280;63522;47.928;21.042;2024-01-11T03:15:39;101582.60;;;15.79;37.60
74966;BME280;63522;47.928;21.042;2024-01-11T03:18:04;101586.02;;;15.79;37.55
74966;BME280;63522;47.928;21.042;2024-01-11T03:20:30;101591.89;;;15.80;37.54
74966;BME280;63522;47.928;21.042;2024-01-11T03:22:55;101590.70;;;15.79;37.43
74966;BME280;63522;47.928;21.042;2024-01-11T03:25:20;101588.83;;;15.80;37.52
74966;BME280;63522;47.928;21.042;2024-01-11T03:27:46;101584.75;;;15.79;37.31
74966;BME280;63522;47.928;21.042;2024-01-11T03:30:12;101589.02;;;15.80;37.51
74966;BME280;63522;47.928;21.042;2024-01-11T03:32:37;101592.40;;;15.80;37.46
74966;BME280;63522;47.928;21.042;2024-01-11T03:35:06;101597.98;;;15.80;37.59
74966;BME280;63522;47.928;21.042;2024-01-11T03:37:32;101592.48;;;15.82;37.45
74966;BME280;63522;47.928;21.042;2024-01-11T03:39:57;101590.17;;;15.82;37.46
74966;BME280;63522;47.928;21.042;2024-01-11T03:42:23;101588.18;;;15.82;37.39
74966;BME280;63522;47.928;21.042;2024-01-11T03:44:49;101586.32;;;15.83;37.43
74966;BME280;63522;47.928;21.042;2024-01-11T03:47:14;101586.68;;;15.83;37.52
74966;BME280;63522;47.928;21.042;2024-01-11T03:49:39;101590.14;;;15.82;37.42
74966;BME280;63522;47.928;21.042;2024-01-11T03:52:05;101590.81;;;15.83;37.43
74966;BME280;63522;47.928;21.042;2024-01-11T03:54:31;101590.41;;;15.83;37.43
74966;BME280;63522;47.928;21.042;2024-01-11T03:56:57;101586.27;;;15.83;37.33
74966;BME280;63522;47.928;21.042;2024-01-11T03:59:22;101588.36;;;15.84;37.33
74966;BME280;63522;47.928;21.042;2024-01-11T04:01:47;101587.66;;;15.84;37.19
74966;BME280;63522;47.928;21.042;2024-01-11T04:04:13;101586.59;;;15.84;37.33
74966;BME280;63522;47.928;21.042;2024-01-11T04:06:38;101588.17;;;15.85;37.40
74966;BME280;63522;47.928;21.042;2024-01-11T04:09:04;101588.75;;;15.84;37.37
74966;BME280;63522;47.928;21.042;2024-01-11T04:11:29;101583.85;;;15.85;37.53
74966;BME280;63522;47.928;21.042;2024-01-11T04:13:54;101582.98;;;15.84;37.36
74966;BME280;63522;47.928;21.042;2024-01-11T04:16:20;101583.66;;;15.85;37.42
74966;BME280;63522;47.928;21.042;2024-01-11T04:18:46;101578.80;;;15.85;37.50
74966;BME280;63522;47.928;21.042;2024-01-11T04:21:25;101575.05;;;15.85;37.42
74966;BME280;63522;47.928;21.042;2024-01-11T04:23:55;101575.06;;;15.85;37.35
74966;BME280;63522;47.928;21.042;2024-01-11T04:26:20;101588.86;;;15.85;37.35
74966;BME280;63522;47.928;21.042;2024-01-11T04:28:46;101588.14;;;15.85;37.43
74966;BME280;63522;47.928;21.042;2024-01-11T04:31:13;101585.98;;;15.85;37.34
74966;BME280;63522;47.928;21.042;2024-01-11T04:33:43;101584.39;;;15.85;37.31
74966;BME280;63522;47.928;21.042;2024-01-11T04:36:09;101583.51;;;15.84;37.42
74966;BME280;63522;47.928;21.042;2024-01-11T04:38:36;101577.59;;;15.84;37.32
74966;BME280;63522;47.928;21.042;2024-01-11T04:41:12;101582.63;;;15.84;37.31
74966;BME280;63522;47.928;21.042;2024-01-11T04:43:39;101582.78;;;15.85;37.37
74966;BME280;63522;47.928;21.042;2024-01-11T04:46:14;101576.61;;;15.83;37.36
74966;BME280;63522;47.928;21.042;2024-01-11T04:48:40;101567.74;;;15.84;37.32
74966;BME280;63522;47.928;21.042;2024-01-11T04:51:06;101567.91;;;15.84;37.28
74966;BME280;63522;47.928;21.042;2024-01-11T04:53:31;101568.97;;;15.84;37.18
74966;BME280;63522;47.928;21.042;2024-01-11T04:55:57;101564.14;;;15.84;37.43
74966;BME280;63522;47.928;21.042;2024-01-11T04:58:22;101564.88;;;15.84;37.29
74966;BME280;63522;47.928;21.042;2024-01-11T05:00:49;101561.83;;;15.84;37.25
74966;BME280;63522;47.928;21.042;2024-01-11T05:03:14;101558.73;;;15.84;37.21
74966;BME280;63522;47.928;21.042;2024-01-11T05:05:39;101551.39;;;15.84;37.27
74966;BME280;63522;47.928;21.042;2024-01-11T05:08:05;101548.10;;;15.85;37.16
74966;BME280;63522;47.928;21.042;2024-01-11T05:10:30;101552.62;;;15.85;37.37
74966;BME280;63522;47.928;21.042;2024-01-11T05:12:55;101551.91;;;15.84;37.24
74966;BME280;63522;47.928;21.042;2024-01-11T05:15:20;101556.07;;;15.84;37.28
74966;BME280;63522;47.928;21.042;2024-01-11T05:17:46;101556.26;;;15.84;37.16
74966;BME280;63522;47.928;21.042;2024-01-11T05:20:12;101551.58;;;15.84;37.34
74966;BME280;63522;47.928;21.042;2024-01-11T05:22:37;101560.57;;;15.84;37.26
74966;BME280;63522;47.928;21.042;2024-01-11T05:25:03;101561.11;;;15.84;37.34
74966;BME280;63522;47.928;21.042;2024-01-11T05:27:28;101558.77;;;15.84;37.24
74966;BME280;63522;47.928;21.042;2024-01-11T05:29:53;101559.69;;;15.84;37.27
74966;BME280;63522;47.928;21.042;2024-01-11T05:32:19;101554.89;;;15.83;37.27
74966;BME280;63522;47.928;21.042;2024-01-11T05:34:44;101553.25;;;15.83;37.36
74966;BME280;63522;47.928;21.042;2024-01-11T05:37:09;101556.13;;;15.83;37.25
74966;BME280;63522;47.928;21.042;2024-01-11T05:39:35;101556.88;;;15.83;37.09
74966;BME280;63522;47.928;21.042;2024-01-11T05:42:00;101555.05;;;15.83;37.25
74966;BME280;63522;47.928;21.042;2024-01-11T05:44:25;101551.15;;;15.82;37.20
74966;BME280;63522;47.928;21.042;2024-01-11T05:46:51;101545.54;;;15.83;37.16
74966;BME280;63522;47.928;21.042;2024-01-11T05:49:16;101541.42;;;15.83;37.23
74966;BME280;63522;47.928;21.042;2024-01-11T05:51:42;101541.48;;;15.82;37.29
74966;BME280;63522;47.928;21.042;2024-01-11T05:54:07;101545.42;;;15.82;37.20
74966;BME280;63522;47.928;21.042;2024-01-11T05:56:32;101548.16;;;15.82;37.28
74966;BME280;63522;47.928;21.042;2024-01-11T05:58:57;101550.85;;;15.82;37.05
74966;BME280;63522;47.928;21.042;2024-01-11T06:01:24;101554.63;;;15.82;37.32
74966;BME280;63522;47.928;21.042;2024-01-11T06:03:49;101555.41;;;15.81;37.28
74966;BME280;63522;47.928;21.042;2024-01-11T06:06:14;101556.23;;;15.82;37.10
74966;BME280;63522;47.928;21.042;2024-01-11T06:08:40;101553.77;;;15.81;37.33
74966;BME280;63522;47.928;21.042;2024-01-11T06:11:07;101554.42;;;15.82;37.33
74966;BME280;63522;47.928;21.042;2024-01-11T06:13:33;101561.84;;;15.81;37.25
74966;BME280;63522;47.928;21.042;2024-01-11T06:15:58;101564.53;;;15.81;37.11
74966;BME280;63522;47.928;21.042;2024-01-11T06:18:23;101560.29;;;15.80;37.28
74966;BME280;63522;47.928;21.042;2024-01-11T06:20:49;101560.27;;;15.81;37.14
74966;BME280;63522;47.928;21.042;2024-01-11T06:23:14;101558.83;;;15.81;37.23
74966;BME280;63522;47.928;21.042;2024-01-11T06:25:39;101565.46;;;15.81;37.16
74966;BME280;63522;47.928;21.042;2024-01-11T06:28:05;101568.90;;;15.80;37.17
74966;BME280;63522;47.928;21.042;2024-01-11T06:30:32;101564.77;;;15.80;37.17
74966;BME280;63522;47.928;21.042;2024-01-11T06:32:57;101558.30;;;15.80;37.16
74966;BME280;63522;47.928;21.042;2024-01-11T06:35:23;101553.28;;;15.80;37.19
74966;BME280;63522;47.928;21.042;2024-01-11T06:37:48;101549.89;;;15.80;37.11
74966;BME280;63522;47.928;21.042;2024-01-11T06:40:14;101546.48;;;15.80;37.20
74966;BME280;63522;47.928;21.042;2024-01-11T06:42:39;101540.38;;;15.80;37.20
74966;BME280;63522;47.928;21.042;2024-01-11T06:45:05;101531.40;;;15.80;37.26
74966;BME280;63522;47.928;21.042;2024-01-11T06:47:31;101529.55;;;15.81;37.06
74966;BME280;63522;47.928;21.042;2024-01-11T06:49:56;101526.58;;;15.80;37.13
74966;BME280;63522;47.928;21.042;2024-01-11T06:52:21;101522.05;;;15.80;37.16
74966;BME280;63522;47.928;21.042;2024-01-11T06:54:47;101510.91;;;15.80;37.08
74966;BME280;63522;47.928;21.042;2024-01-11T06:57:12;101500.52;;;15.80;37.14
74966;BME280;63522;47.928;21.042;2024-01-11T06:59:37;101504.30;;;15.80;37.19
74966;BME280;63522;47.928;21.042;2024-01-11T07:02:03;101515.23;;;15.80;37.13
74966;BME280;63522;47.928;21.042;2024-01-11T07:04:29;101510.59;;;15.80;37.13
74966;BME280;63522;47.928;21.042;2024-01-11T07:06:54;101501.48;;;15.79;37.20
74966;BME280;63522;47.928;21.042;2024-01-11T07:09:19;101503.11;;;15.79;37.00
74966;BME280;63522;47.928;21.042;2024-01-11T07:11:45;101501.84;;;15.79;37.27
74966;BME280;63522;47.928;21.042;2024-01-11T07:14:10;101491.94;;;15.80;37.02
74966;BME280;63522;47.928;21.042;2024-01-11T07:16:36;101484.91;;;15.80;37.11
74966;BME280;63522;47.928;21.042;2024-01-11T07:19:01;101481.90;;;15.79;37.18
74966;BME280;63522;47.928;21.042;2024-01-11T07:21:27;101485.63;;;15.80;37.18
74966;BME280;63522;47.928;21.042;2024-01-11T07:23:57;101488.96;;;15.79;37.23
74966;BME280;63522;47.928;21.042;2024-01-11T07:26:23;101495.17;;;15.80;37.22
74966;BME280;63522;47.928;21.042;2024-01-11T07:28:49;101494.83;;;15.80;37.19
74966;BME280;63522;47.928;21.042;2024-01-11T07:31:14;101491.38;;;15.80;37.17
74966;BME280;63522;47.928;21.042;2024-01-11T07:33:40;101481.59;;;15.79;37.05
74966;BME280;63522;47.928;21.042;2024-01-11T07:36:06;101478.34;;;15.79;37.15
74966;BME280;63522;47.928;21.042;2024-01-11T07:38:31;101486.20;;;15.80;37.09
74966;BME280;63522;47.928;21.042;2024-01-11T07:40:57;101488.05;;;15.79;37.20
74966;BME280;63522;47.928;21.042;2024-01-11T07:43:22;101488.55;;;15.79;37.29
74966;BME280;63522;47.928;21.042;2024-01-11T07:45:47;101484.04;;;15.80;37.39
74966;BME280;63522;47.928;21.042;2024-01-11T07:48:13;101478.88;;;15.79;37.15
74966;BME280;63522;47.928;21.042;2024-01-11T07:50:38;101484.94;;;15.80;37.18
74966;BME280;63522;47.928;21.042;2024-01-11T07:53:03;101490.05;;;15.78;37.24
74966;BME280;63522;47.928;21.042;2024-01-11T07:55:30;101495.02;;;15.79;37.30
74966;BME280;63522;47.928;21.042;2024-01-11T07:57:56;101480.15;;;15.79;37.13
74966;BME280;63522;47.928;21.042;2024-01-11T08:00:22;101468.70;;;15.78;37.18
74966;BME280;63522;47.928;21.042;2024-01-11T08:02:47;101472.59;;;15.79;37.29
74966;BME280;63522;47.928;21.042;2024-01-11T08:05:12;101473.52;;;15.79;37.22
74966;BME280;63522;47.928;21.042;2024-01-11T08:07:38;101472.08;;;15.79;37.14
74966;BME280;63522;47.928;21.042;2024-01-11T08:10:04;101467.79;;;15.78;37.24
74966;BME280;63522;47.928;21.042;2024-01-11T08:12:29;101460.05;;;15.79;37.20
74966;BME280;63522;47.928;21.042;2024-01-11T08:14:55;101460.27;;;15.78;37.23
74966;BME280;63522;47.928;21.042;2024-01-11T08:17:21;101459.39;;;15.78;37.22
74966;BME280;63522;47.928;21.042;2024-01-11T08:19:46;101457.34;;;15.79;37.27
74966;BME280;63522;47.928;21.042;2024-01-11T08:22:11;101457.33;;;15.79;37.14
74966;BME280;63522;47.928;21.042;2024-01-11T08:24:37;101453.81;;;15.78;37.18
74966;BME280;63522;47.928;21.042;2024-01-11T08:27:04;101448.39;;;15.79;37.18
74966;BME280;63522;47.928;21.042;2024-01-11T08:29:29;101437.24;;;15.79;37.23
74966;BME280;63522;47.928;21.042;2024-01-11T08:31:55;101437.73;;;15.79;37.22
74966;BME280;63522;47.928;21.042;2024-01-11T08:34:21;101432.30;;;15.78;37.25
74966;BME280;63522;47.928;21.042;2024-01-11T08:36:46;101425.80;;;15.78;37.31
74966;BME280;63522;47.928;21.042;2024-01-11T08:39:13;101427.19;;;15.79;37.25
74966;BME280;63522;47.928;21.042;2024-01-11T08:41:39;101418.27;;;15.78;37.16
74966;BME280;63522;47.928;21.042;2024-01-11T08:44:05;101423.44;;;15.79;37.17
74966;BME280;63522;47.928;21.042;2024-01-11T08:46:33;101428.52;;;15.78;37.32
74966;BME280;63522;47.928;21.042;2024-01-11T08:49:00;101434.40;;;15.78;37.18
74966;BME280;63522;47.928;21.042;2024-01-11T08:51:28;101434.95;;;15.79;37.24
74966;BME280;63522;47.928;21.042;2024-01-11T08:53:54;101433.52;;;15.78;37.26
74966;BME280;63522;47.928;21.042;2024-01-11T08:56:19;101428.27;;;15.79;37.11
74966;BME280;63522;47.928;21.042;2024-01-11T08:58:44;101425.17;;;15.79;37.10
74966;BME280;63522;47.928;21.042;2024-01-11T09:01:10;101423.17;;;15.80;37.07
74966;BME280;63522;47.928;21.042;2024-01-11T09:03:36;101419.41;;;15.80;37.03
74966;BME280;63522;47.928;21.042;2024-01-11T09:06:02;101412.26;;;15.79;37.20
74966;BME280;63522;47.928;21.042;2024-01-11T09:08:29;101402.78;;;15.79;37.07
74966;BME280;63522;47.928;21.042;2024-01-11T09:10:55;101394.12;;;15.80;37.08
74966;BME280;63522;47.928;21.042;2024-01-11T09:13:21;101384.33;;;15.79;37.19
74966;BME280;63522;47.928;21.042;2024-01-11T09:15:46;101381.77;;;15.79;37.15
74966;BME280;63522;47.928;21.042;2024-01-11T09:18:11;101377.30;;;15.79;37.16
74966;BME280;63522;47.928;21.042;2024-01-11T09:20:37;101376.04;;;15.79;36.94
74966;BME280;63522;47.928;21.042;2024-01-11T09:23:02;101377.09;;;15.79;37.10
74966;BME280;63522;47.928;21.042;2024-01-11T09:25:32;101378.40;;;15.78;37.02
74966;BME280;63522;47.928;21.042;2024-01-11T09:27:57;101383.91;;;15.79;37.03
74966;BME280;63522;47.928;21.042;2024-01-11T09:30:23;101385.52;;;15.79;37.21
74966;BME280;63522;47.928;21.042;2024-01-11T09:32:48;101378.14;;;15.80;37.22
74966;BME280;63522;47.928;21.042;2024-01-11T09:35:14;101360.92;;;15.79;37.29
74966;BME280;63522;47.928;21.042;2024-01-11T09:37:40;101351.09;;;15.79;37.01
74966;BME280;63522;47.928;21.042;2024-01-11T09:40:06;101335.88;;;15.78;37.13
74966;BME280;63522;47.928;21.042;2024-01-11T09:42:36;101325.59;;;15.79;37.16
74966;BME280;63522;47.928;21.042;2024-01-11T09:45:02;101319.47;;;15.79;37.11
74966;BME280;63522;47.928;21.042;2024-01-11T09:47:33;101319.49;;;15.79;37.10
74966;BME280;63522;47.928;21.042;2024-01-11T09:50:00;101324.19;;;15.78;37.07
74966;BME280;63522;47.928;21.042;2024-01-11T09:52:28;101321.02;;;15.78;36.87
74966;BME280;63522;47.928;21.042;2024-01-11T09:54:53;101314.54;;;15.78;37.11
74966;BME280;63522;47.928;21.042;2024-01-11T09:57:24;101307.84;;;15.79;37.06
74966;BME280;63522;47.928;21.042;2024-01-11T09:59:54;101301.91;;;15.79;37.18
74966;BME280;63522;47.928;21.042;2024-01-11T10:02:19;101296.23;;;15.78;37.18
74966;BME280;63522;47.928;21.042;2024-01-11T10:04:46;101302.84;;;15.78;37.28
74966;BME280;63522;47.928;21.042;2024-01-11T10:07:12;101305.45;;;15.80;37.16
74966;BME280;63522;47.928;21.042;2024-01-11T10:09:40;101295.62;;;15.79;37.13
74966;BME280;63522;47.928;21.042;2024-01-11T10:12:05;101296.86;;;15.79;37.18
74966;BME280;63522;47.928;21.042;2024-01-11T10:14:31;101303.20;;;15.78;37.15
74966;BME280;63522;47.928;21.042;2024-01-11T10:16:57;101294.57;;;15.79;37.13
74966;BME280;63522;47.928;21.042;2024-01-11T10:19:22;101293.52;;;15.78;37.16
74966;BME280;63522;47.928;21.042;2024-01-11T10:21:47;101299.49;;;15.78;37.24
74966;BME280;63522;47.928;21.042;2024-01-11T10:24:19;101301.34;;;15.77;37.25
74966;BME280;63522;47.928;21.042;2024-01-11T10:26:51;101297.56;;;15.77;37.20
74966;BME280;63522;47.928;21.042;2024-01-11T10:29:17;101293.21;;;15.78;37.32
74966;BME280;63522;47.928;21.042;2024-01-11T10:31:43;101280.39;;;15.78;37.23
74966;BME280;63522;47.928;21.042;2024-01-11T10:34:08;101273.61;;;15.78;37.32
74966;BME280;63522;47.928;21.042;2024-01-11T10:36:34;101271.24;;;15.78;37.29
74966;BME280;63522;47.928;21.042;2024-01-11T10:39:02;101262.31;;;15.78;37.17
74966;BME280;63522;47.928;21.042;2024-01-11T10:41:39;101252.56;;;15.79;37.20
74966;BME280;63522;47.928;21.042;2024-01-11T10:44:15;101245.52;;;15.79;37.18
74966;BME280;63522;47.928;21.042;2024-01-11T10:46:44;101241.80;;;15.78;37.16
74966;BME280;63522;47.928;21.042;2024-01-11T10:49:11;101247.70;;;15.79;37.30
74966;BME280;63522;47.928;21.042;2024-01-11T10:51:45;101256.10;;;15.79;37.34
74966;BME280;63522;47.928;21.042;2024-01-11T10:54:15;101264.66;;;15.80;37.38
74966;BME280;63522;47.928;21.042;2024-01-11T10:56:42;101260.55;;;15.80;37.34
74966;BME280;63522;47.928;21.042;2024-01-11T10:59:10;101263.36;;;15.81;37.38
74966;BME280;63522;47.928;21.042;2024-01-11T11:01:41;101255.02;;;15.82;37.56
74966;BME280;63522;47.928;21.042;2024-01-11T11:04:07;101250.48;;;15.82;37.56
74966;BME280;63522;47.928;21.042;2024-01-11T11:06:34;101264.62;;;15.83;37.50
74966;BME280;63522;47.928;21.042;2024-01-11T11:09:02;101265.42;;;15.84;37.52
74966;BME280;63522;47.928;21.042;2024-01-11T11:11:30;101250.11;;;15.85;37.52
74966;BME280;63522;47.928;21.042;2024-01-11T11:13:58;101240.93;;;15.85;37.42
74966;BME280;63522;47.928;21.042;2024-01-11T11:16:25;101236.23;;;15.86;37.54
74966;BME280;63522;47.928;21.042;2024-01-11T11:18:53;101243.00;;;15.87;37.46
74966;BME280;63522;47.928;21.042;2024-01-11T11:21:20;101238.25;;;15.88;37.64
74966;BME280;63522;47.928;21.042;2024-01-11T11:23:46;101229.17;;;15.89;37.55
74966;BME280;63522;47.928;21.042;2024-01-11T11:26:18;101221.59;;;15.90;37.82
74966;BME280;63522;47.928;21.042;2024-01-11T11:28:44;101215.20;;;15.91;37.67
74966;BME280;63522;47.928;21.042;2024-01-11T11:31:12;101210.05;;;15.93;37.69
74966;BME280;63522;47.928;21.042;2024-01-11T11:33:38;101199.77;;;15.93;37.64
74966;BME280;63522;47.928;21.042;2024-01-11T11:36:03;101197.70;;;15.95;37.71
74966;BME280;63522;47.928;21.042;2024-01-11T11:38:30;101196.88;;;15.96;37.79
74966;BME280;63522;47.928;21.042;2024-01-11T11:40:58;101189.72;;;15.96;37.79
74966;BME280;63522;47.928;21.042;2024-01-11T11:43:26;101189.80;;;15.97;37.72
74966;BME280;63522;47.928;21.042;2024-01-11T11:45:51;101182.09;;;15.99;37.79
74966;BME280;63522;47.928;21.042;2024-01-11T11:51:18;101182.15;;;16.00;37.89
74966;BME280;63522;47.928;21.042;2024-01-11T11:53:46;101182.32;;;16.01;37.87
74966;BME280;63522;47.928;21.042;2024-01-11T11:56:11;101185.16;;;16.01;37.98
74966;BME280;63522;47.928;21.042;2024-01-11T11:58:43;101173.27;;;16.02;37.95
74966;BME280;63522;47.928;21.042;2024-01-11T12:01:09;101171.83;;;16.02;38.01
74966;BME280;63522;47.928;21.042;2024-01-11T12:03:37;101166.06;;;16.02;37.84
74966;BME280;63522;47.928;21.042;2024-01-11T12:06:04;101164.92;;;16.03;37.90
74966;BME280;63522;47.928;21.042;2024-01-11T12:08:32;101164.84;;;16.04;37.93
74966;BME280;63522;47.928;21.042;2024-01-11T12:10:58;101160.33;;;16.04;37.76
74966;BME280;63522;47.928;21.042;2024-01-11T12:13:24;101157.67;;;16.03;37.85
74966;BME280;63522;47.928;21.042;2024-01-11T12:15:50;101157.63;;;16.04;38.03
74966;BME280;63522;47.928;21.042;2024-01-11T12:18:18;101157.02;;;16.05;38.09
74966;BME280;63522;47.928;21.042;2024-01-11T12:20:44;101143.52;;;16.06;38.04
74966;BME280;63522;47.928;21.042;2024-01-11T12:23:10;101140.23;;;16.06;37.93
74966;BME280;63522;47.928;21.042;2024-01-11T12:25:40;101139.64;;;16.07;37.89
74966;BME280;63522;47.928;21.042;2024-01-11T12:28:05;101134.33;;;16.08;37.95
74966;BME280;63522;47.928;21.042;2024-01-11T12:30:31;101143.32;;;16.08;37.98
74966;BME280;63522;47.928;21.042;2024-01-11T12:32:56;101138.73;;;16.09;38.00
74966;BME280;63522;47.928;21.042;2024-01-11T12:35:23;101130.17;;;16.09;38.09
74966;BME280;63522;47.928;21.042;2024-01-11T12:37:55;101125.80;;;16.09;38.08
74966;BME280;63522;47.928;21.042;2024-01-11T12:40:21;101127.75;;;16.10;38.15
74966;BME280;63522;47.928;21.042;2024-01-11T12:42:47;101124.89;;;16.10;38.06
74966;BME280;63522;47.928;21.042;2024-01-11T12:45:15;101107.13;;;16.09;37.86
74966;BME280;63522;47.928;21.042;2024-01-11T12:47:40;101084.61;;;16.08;37.94
74966;BME280;63522;47.928;21.042;2024-01-11T12:50:06;101077.64;;;16.10;38.18
74966;BME280;63522;47.928;21.042;2024-01-11T12:52:33;101074.77;;;16.10;37.99
74966;BME280;63522;47.928;21.042;2024-01-11T12:54:58;101056.93;;;16.10;38.06
74966;BME280;63522;47.928;21.042;2024-01-11T12:57:25;101054.39;;;16.11;38.08
74966;BME280;63522;47.928;21.042;2024-01-11T12:59:52;101057.96;;;16.11;38.21
74966;BME280;63522;47.928;21.042;2024-01-11T13:02:18;101060.09;;;16.11;38.19
74966;BME280;63522;47.928;21.042;2024-01-11T13:04:45;101059.11;;;16.10;38.19
74966;BME280;63522;47.928;21.042;2024-01-11T13:07:13;101058.30;;;16.11;38.16
74966;BME280;63522;47.928;21.042;2024-01-11T13:09:41;101063.11;;;16.12;38.26
74966;BME280;63522;47.928;21.042;2024-01-11T13:12:06;101069.49;;;16.13;38.16
74966;BME280;63522;47.928;21.042;2024-01-11T13:14:32;101068.96;;;16.13;38.28
74966;BME280;63522;47.928;21.042;2024-01-11T13:16:58;101061.66;;;16.12;38.26
74966;BME280;63522;47.928;21.042;2024-01-11T13:19:23;101057.13;;;16.12;38.28
74966;BME280;63522;47.928;21.042;2024-01-11T13:21:48;101042.77;;;16.12;38.26